sensor_id;sensor_type;location;lat;lon;timestamp;temperature;humidity
490;DHT22;231;48.120;11.576;2024-02-15T01:01:32;8.90;23.60
490;DHT22;231;48.120;11.576;2024-02-15T01:04:34;8.90;24.10
490;DHT22;231;48.120;11.576;2024-02-15T01:07:03;8.90;24.40
490;DHT22;231;48.120;11.576;2024-02-15T01:10:13;8.90;24.80
490;DHT22;231;48.120;11.576;2024-02-15T01:16:23;8.80;24.70
490;DHT22;231;48.120;11.576;2024-02-15T01:19:22;8.90;24.70
490;DHT22;231;48.120;11.576;2024-02-15T01:21:49;8.90;25.30
490;DHT22;231;48.120;11.576;2024-02-15T01:24:16;8.90;24.70
490;DHT22;231;48.120;11.576;2024-02-15T01:26:43;8.90;24.40
490;DHT22;231;48.120;11.576;2024-02-15T01:29:10;8.90;24.30
490;DHT22;231;48.120;11.576;2024-02-15T01:31:37;8.80;24.70
490;DHT22;231;48.120;11.576;2024-02-15T01:34:05;8.80;24.70
490;DHT22;231;48.120;11.576;2024-02-15T01:36:33;8.70;25.10
490;DHT22;231;48.120;11.576;2024-02-15T01:39:00;8.70;25.50
490;DHT22;231;48.120;11.576;2024-02-15T01:41:26;8.70;25.80
490;DHT22;231;48.120;11.576;2024-02-15T01:43:53;8.70;25.90
490;DHT22;231;48.120;11.576;2024-02-15T01:46:21;8.70;26.10
490;DHT22;231;48.120;11.576;2024-02-15T01:48:48;8.60;26.20
490;DHT22;231;48.120;11.576;2024-02-15T01:51:16;8.50;26.60
490;DHT22;231;48.120;11.576;2024-02-15T01:53:45;8.40;27.30
490;DHT22;231;48.120;11.576;2024-02-15T01:56:13;8.40;28.00
490;DHT22;231;48.120;11.576;2024-02-15T01:58:42;8.40;28.60
490;DHT22;231;48.120;11.576;2024-02-15T02:01:09;8.30;28.80
490;DHT22;231;48.120;11.576;2024-02-15T02:03:39;8.30;29.10
490;DHT22;231;48.120;11.576;2024-02-15T02:06:06;8.30;29.60
490;DHT22;231;48.120;11.576;2024-02-15T02:08:34;8.40;29.60
490;DHT22;231;48.120;11.576;2024-02-15T02:11:02;8.40;29.50
490;DHT22;231;48.120;11.576;2024-02-15T02:13:29;8.50;29.20
490;DHT22;231;48.120;11.576;2024-02-15T02:15:56;8.50;28.80
490;DHT22;231;48.120;11.576;2024-02-15T02:18:25;8.70;28.10
490;DHT22;231;48.120;11.576;2024-02-15T02:20:52;8.70;28.00
490;DHT22;231;48.120;11.576;2024-02-15T02:23:21;8.70;27.70
490;DHT22;231;48.120;11.576;2024-02-15T02:25:54;8.80;27.40
490;DHT22;231;48.120;11.576;2024-02-15T02:28:22;8.70;26.90
490;DHT22;231;48.120;11.576;2024-02-15T02:30:53;8.80;26.70
490;DHT22;231;48.120;11.576;2024-02-15T02:33:20;8.80;26.60
490;DHT22;231;48.120;11.576;2024-02-15T02:35:48;8.80;26.20
490;DHT22;231;48.120;11.576;2024-02-15T02:38:15;8.90;26.10
490;DHT22;231;48.120;11.576;2024-02-15T02:40:42;8.90;25.90
490;DHT22;231;48.120;11.576;2024-02-15T02:43:10;8.80;25.90
490;DHT22;231;48.120;11.576;2024-02-15T02:45:37;8.80;26.00
490;DHT22;231;48.120;11.576;2024-02-15T02:48:05;8.80;26.00
490;DHT22;231;48.120;11.576;2024-02-15T02:50:32;8.80;26.40
490;DHT22;231;48.120;11.576;2024-02-15T02:52:59;8.70;26.60
490;DHT22;231;48.120;11.576;2024-02-15T02:55:26;8.80;26.90
490;DHT22;231;48.120;11.576;2024-02-15T02:57:54;8.80;26.50
490;DHT22;231;48.120;11.576;2024-02-15T03:00:23;8.90;26.00
490;DHT22;231;48.120;11.576;2024-02-15T03:02:50;8.90;25.60
490;DHT22;231;48.120;11.576;2024-02-15T03:05:17;8.90;25.40
490;DHT22;231;48.120;11.576;2024-02-15T03:07:46;8.90;25.20
490;DHT22;231;48.120;11.576;2024-02-15T03:10:13;8.90;25.30
490;DHT22;231;48.120;11.576;2024-02-15T03:12:41;8.90;25.40
490;DHT22;231;48.120;11.576;2024-02-15T03:15:11;8.90;25.50
490;DHT22;231;48.120;11.576;2024-02-15T03:17:40;8.80;25.30
490;DHT22;231;48.120;11.576;2024-02-15T03:39:54;8.50;28.10
490;DHT22;231;48.120;11.576;2024-02-15T03:42:35;8.50;28.20
490;DHT22;231;48.120;11.576;2024-02-15T03:45:19;8.50;27.90
490;DHT22;231;48.120;11.576;2024-02-15T03:51:10;8.50;27.50
490;DHT22;231;48.120;11.576;2024-02-15T03:53:55;8.50;27.40
490;DHT22;231;48.120;11.576;2024-02-15T03:56:57;8.50;27.70
490;DHT22;231;48.120;11.576;2024-02-15T03:59:34;8.40;27.60
490;DHT22;231;48.120;11.576;2024-02-15T04:02:20;8.40;27.70
490;DHT22;231;48.120;11.576;2024-02-15T04:05:30;8.20;28.20
490;DHT22;231;48.120;11.576;2024-02-15T04:08:41;8.20;28.10
490;DHT22;231;48.120;11.576;2024-02-15T04:11:46;8.10;28.60
490;DHT22;231;48.120;11.576;2024-02-15T04:28:58;7.90;29.50
490;DHT22;231;48.120;11.576;2024-02-15T04:32:22;7.50;31.10
490;DHT22;231;48.120;11.576;2024-02-15T04:35:30;7.40;33.10
490;DHT22;231;48.120;11.576;2024-02-15T04:42:26;7.10;35.70
490;DHT22;231;48.120;11.576;2024-02-15T04:48:51;6.80;38.80
490;DHT22;231;48.120;11.576;2024-02-15T04:52:01;6.70;41.30
490;DHT22;231;48.120;11.576;2024-02-15T04:54:48;6.60;43.00
490;DHT22;231;48.120;11.576;2024-02-15T04:58:02;6.60;44.60
490;DHT22;231;48.120;11.576;2024-02-15T05:01:25;6.40;46.00
490;DHT22;231;48.120;11.576;2024-02-15T05:04:51;6.40;46.10
490;DHT22;231;48.120;11.576;2024-02-15T05:08:00;6.40;46.00
490;DHT22;231;48.120;11.576;2024-02-15T05:11:24;6.30;44.80
490;DHT22;231;48.120;11.576;2024-02-15T05:14:26;6.30;44.50
490;DHT22;231;48.120;11.576;2024-02-15T05:17:47;6.30;45.00
490;DHT22;231;48.120;11.576;2024-02-15T05:27:41;6.10;47.90
490;DHT22;231;48.120;11.576;2024-02-15T05:31:07;6.00;48.50
490;DHT22;231;48.120;11.576;2024-02-15T05:37:06;5.80;51.00
490;DHT22;231;48.120;11.576;2024-02-15T06:34:55;5.00;82.60
490;DHT22;231;48.120;11.576;2024-02-15T06:37:40;5.10;86.00
490;DHT22;231;48.120;11.576;2024-02-15T06:40:24;5.30;87.40
490;DHT22;231;48.120;11.576;2024-02-15T06:42:51;5.50;88.30
490;DHT22;231;48.120;11.576;2024-02-15T06:45:18;5.60;88.10
490;DHT22;231;48.120;11.576;2024-02-15T06:47:45;5.80;88.20
490;DHT22;231;48.120;11.576;2024-02-15T06:50:14;6.00;85.50
490;DHT22;231;48.120;11.576;2024-02-15T06:52:41;6.30;78.50
490;DHT22;231;48.120;11.576;2024-02-15T06:55:09;6.50;69.00
490;DHT22;231;48.120;11.576;2024-02-15T06:57:37;6.70;61.40
490;DHT22;231;48.120;11.576;2024-02-15T07:00:07;6.90;55.80
490;DHT22;231;48.120;11.576;2024-02-15T07:02:35;7.10;51.40
490;DHT22;231;48.120;11.576;2024-02-15T07:05:02;7.30;48.40
490;DHT22;231;48.120;11.576;2024-02-15T07:07:31;7.40;45.90
490;DHT22;231;48.120;11.576;2024-02-15T07:09:58;7.60;41.90
490;DHT22;231;48.120;11.576;2024-02-15T07:12:25;7.80;38.50
490;DHT22;231;48.120;11.576;2024-02-15T07:14:52;8.00;35.10
490;DHT22;231;48.120;11.576;2024-02-15T07:17:20;8.20;33.20
490;DHT22;231;48.120;11.576;2024-02-15T07:19:47;8.40;31.00
490;DHT22;231;48.120;11.576;2024-02-15T07:22:14;8.60;29.60
490;DHT22;231;48.120;11.576;2024-02-15T07:24:43;8.80;28.70
490;DHT22;231;48.120;11.576;2024-02-15T07:27:10;9.00;26.50
490;DHT22;231;48.120;11.576;2024-02-15T07:29:38;9.20;25.20
490;DHT22;231;48.120;11.576;2024-02-15T07:32:05;9.30;24.10
490;DHT22;231;48.120;11.576;2024-02-15T07:34:32;9.50;22.80
490;DHT22;231;48.120;11.576;2024-02-15T07:37:01;9.70;21.70
490;DHT22;231;48.120;11.576;2024-02-15T07:39:28;9.80;20.70
490;DHT22;231;48.120;11.576;2024-02-15T07:41:57;9.90;19.90
490;DHT22;231;48.120;11.576;2024-02-15T07:44:24;10.00;18.70
490;DHT22;231;48.120;11.576;2024-02-15T07:46:53;10.10;18.30
490;DHT22;231;48.120;11.576;2024-02-15T07:49:20;10.30;17.50
490;DHT22;231;48.120;11.576;2024-02-15T07:51:48;10.40;16.70
490;DHT22;231;48.120;11.576;2024-02-15T07:54:18;10.50;16.00
490;DHT22;231;48.120;11.576;2024-02-15T07:56:46;10.60;15.40
490;DHT22;231;48.120;11.576;2024-02-15T07:59:15;10.70;14.60
490;DHT22;231;48.120;11.576;2024-02-15T08:01:42;10.70;13.90
490;DHT22;231;48.120;11.576;2024-02-15T08:04:11;10.70;13.70
490;DHT22;231;48.120;11.576;2024-02-15T08:06:38;10.70;13.40
490;DHT22;231;48.120;11.576;2024-02-15T08:09:05;10.70;13.40
490;DHT22;231;48.120;11.576;2024-02-15T08:11:32;10.80;13.60
490;DHT22;231;48.120;11.576;2024-02-15T08:13:59;10.90;13.30
490;DHT22;231;48.120;11.576;2024-02-15T08:16:27;11.00;12.90
490;DHT22;231;48.120;11.576;2024-02-15T08:18:57;11.20;12.40
490;DHT22;231;48.120;11.576;2024-02-15T08:21:26;11.40;11.80
490;DHT22;231;48.120;11.576;2024-02-15T08:23:55;11.80;10.90
490;DHT22;231;48.120;11.576;2024-02-15T08:26:22;12.80;10.80
490;DHT22;231;48.120;11.576;2024-02-15T08:28:49;14.80;6.60
490;DHT22;231;48.120;11.576;2024-02-15T08:31:16;16.70;1.00
490;DHT22;231;48.120;11.576;2024-02-15T08:33:46;18.10;1.00
490;DHT22;231;48.120;11.576;2024-02-15T08:36:13;19.40;1.00
490;DHT22;231;48.120;11.576;2024-02-15T08:38:41;20.60;1.00
490;DHT22;231;48.120;11.576;2024-02-15T08:41:08;21.80;1.00
490;DHT22;231;48.120;11.576;2024-02-15T08:43:37;23.40;1.00
490;DHT22;231;48.120;11.576;2024-02-15T08:46:05;24.90;1.00
490;DHT22;231;48.120;11.576;2024-02-15T08:48:32;26.20;1.00
490;DHT22;231;48.120;11.576;2024-02-15T08:51:01;27.30;1.00
490;DHT22;231;48.120;11.576;2024-02-15T08:53:28;28.50;1.00
490;DHT22;231;48.120;11.576;2024-02-15T08:55:55;29.70;1.00
490;DHT22;231;48.120;11.576;2024-02-15T08:58:36;30.80;1.00
490;DHT22;231;48.120;11.576;2024-02-15T09:01:10;31.80;1.00
490;DHT22;231;48.120;11.576;2024-02-15T09:03:41;32.80;1.00
490;DHT22;231;48.120;11.576;2024-02-15T09:06:24;33.30;1.00
490;DHT22;231;48.120;11.576;2024-02-15T09:08:53;33.80;1.00
490;DHT22;231;48.120;11.576;2024-02-15T09:11:27;34.20;1.00
490;DHT22;231;48.120;11.576;2024-02-15T09:14:02;34.30;1.00
490;DHT22;231;48.120;11.576;2024-02-15T09:16:32;34.50;1.00
490;DHT22;231;48.120;11.576;2024-02-15T09:19:02;34.80;1.00
490;DHT22;231;48.120;11.576;2024-02-15T09:21:46;35.30;1.00
490;DHT22;231;48.120;11.576;2024-02-15T09:24:13;35.70;1.00
490;DHT22;231;48.120;11.576;2024-02-15T09:26:44;36.00;1.00
490;DHT22;231;48.120;11.576;2024-02-15T09:29:14;36.00;1.00
490;DHT22;231;48.120;11.576;2024-02-15T09:31:43;36.10;1.00
490;DHT22;231;48.120;11.576;2024-02-15T09:34:13;36.50;1.00
490;DHT22;231;48.120;11.576;2024-02-15T09:36:43;36.70;1.00
490;DHT22;231;48.120;11.576;2024-02-15T09:39:16;37.10;1.00
490;DHT22;231;48.120;11.576;2024-02-15T09:41:49;37.40;1.00
490;DHT22;231;48.120;11.576;2024-02-15T09:44:22;37.60;1.00
490;DHT22;231;48.120;11.576;2024-02-15T09:47:04;37.90;1.00
490;DHT22;231;48.120;11.576;2024-02-15T09:49:35;38.20;1.00
490;DHT22;231;48.120;11.576;2024-02-15T09:52:07;38.50;1.00
490;DHT22;231;48.120;11.576;2024-02-15T09:54:40;38.80;1.00
490;DHT22;231;48.120;11.576;2024-02-15T09:57:20;39.20;1.00
490;DHT22;231;48.120;11.576;2024-02-15T09:59:48;39.60;1.00
490;DHT22;231;48.120;11.576;2024-02-15T10:02:16;39.90;1.00
490;DHT22;231;48.120;11.576;2024-02-15T10:04:46;39.90;1.00
490;DHT22;231;48.120;11.576;2024-02-15T10:07:18;39.80;1.00
490;DHT22;231;48.120;11.576;2024-02-15T10:10:18;39.10;1.00
490;DHT22;231;48.120;11.576;2024-02-15T10:12:55;39.10;1.00
490;DHT22;231;48.120;11.576;2024-02-15T10:15:31;39.10;1.00
490;DHT22;231;48.120;11.576;2024-02-15T10:18:01;38.60;1.00
490;DHT22;231;48.120;11.576;2024-02-15T10:20:36;38.60;1.00
490;DHT22;231;48.120;11.576;2024-02-15T10:26:26;37.80;1.00
490;DHT22;231;48.120;11.576;2024-02-15T10:32:48;36.30;1.00
490;DHT22;231;48.120;11.576;2024-02-15T10:35:20;36.50;1.00
490;DHT22;231;48.120;11.576;2024-02-15T10:37:48;36.60;1.00
490;DHT22;231;48.120;11.576;2024-02-15T10:40:22;36.50;1.00
490;DHT22;231;48.120;11.576;2024-02-15T10:42:54;36.20;1.00
490;DHT22;231;48.120;11.576;2024-02-15T10:45:27;35.00;1.00
490;DHT22;231;48.120;11.576;2024-02-15T10:48:04;34.00;1.00
490;DHT22;231;48.120;11.576;2024-02-15T10:50:35;33.80;1.00
490;DHT22;231;48.120;11.576;2024-02-15T10:53:20;34.20;1.00
490;DHT22;231;48.120;11.576;2024-02-15T10:55:57;34.30;1.00
490;DHT22;231;48.120;11.576;2024-02-15T10:58:32;34.40;1.00
490;DHT22;231;48.120;11.576;2024-02-15T11:01:09;34.20;1.00
490;DHT22;231;48.120;11.576;2024-02-15T11:03:47;33.70;1.00
490;DHT22;231;48.120;11.576;2024-02-15T11:06:23;33.20;1.00
490;DHT22;231;48.120;11.576;2024-02-15T11:08:56;32.90;1.00
490;DHT22;231;48.120;11.576;2024-02-15T11:11:25;32.70;1.00
490;DHT22;231;48.120;11.576;2024-02-15T11:14:26;32.60;1.00
490;DHT22;231;48.120;11.576;2024-02-15T11:16:57;32.50;1.00
490;DHT22;231;48.120;11.576;2024-02-15T11:19:44;32.60;1.00
490;DHT22;231;48.120;11.576;2024-02-15T11:22:16;32.90;1.00
490;DHT22;231;48.120;11.576;2024-02-15T11:24:47;33.20;1.00
490;DHT22;231;48.120;11.576;2024-02-15T11:27:24;32.90;1.00
490;DHT22;231;48.120;11.576;2024-02-15T11:29:57;32.50;1.00
490;DHT22;231;48.120;11.576;2024-02-15T11:32:46;32.30;1.00
490;DHT22;231;48.120;11.576;2024-02-15T11:35:23;32.30;1.00
490;DHT22;231;48.120;11.576;2024-02-15T11:37:53;31.80;1.00
490;DHT22;231;48.120;11.576;2024-02-15T11:40:21;31.40;1.00
490;DHT22;231;48.120;11.576;2024-02-15T11:42:50;31.30;1.00
490;DHT22;231;48.120;11.576;2024-02-15T11:45:20;30.70;1.00
490;DHT22;231;48.120;11.576;2024-02-15T11:47:49;30.20;1.00
490;DHT22;231;48.120;11.576;2024-02-15T11:50:18;29.70;1.00
490;DHT22;231;48.120;11.576;2024-02-15T11:52:47;29.40;1.00
490;DHT22;231;48.120;11.576;2024-02-15T11:55:18;29.70;1.00
490;DHT22;231;48.120;11.576;2024-02-15T11:58:00;30.10;1.00
490;DHT22;231;48.120;11.576;2024-02-15T12:00:38;30.30;1.00
490;DHT22;231;48.120;11.576;2024-02-15T12:03:23;29.90;1.00
490;DHT22;231;48.120;11.576;2024-02-15T12:06:17;29.60;1.00
490;DHT22;231;48.120;11.576;2024-02-15T12:09:04;29.50;1.00
490;DHT22;231;48.120;11.576;2024-02-15T12:12:00;29.00;1.00
490;DHT22;231;48.120;11.576;2024-02-15T12:15:02;28.30;1.00
490;DHT22;231;48.120;11.576;2024-02-15T12:17:48;27.40;1.00
490;DHT22;231;48.120;11.576;2024-02-15T12:20:33;27.00;1.00
490;DHT22;231;48.120;11.576;2024-02-15T12:23:09;26.80;1.00
490;DHT22;231;48.120;11.576;2024-02-15T12:25:47;26.60;1.00
490;DHT22;231;48.120;11.576;2024-02-15T12:28:29;25.90;1.00
490;DHT22;231;48.120;11.576;2024-02-15T12:31:01;24.90;1.00
490;DHT22;231;48.120;11.576;2024-02-15T12:33:39;24.10;1.00
490;DHT22;231;48.120;11.576;2024-02-15T12:36:12;23.60;1.00
490;DHT22;231;48.120;11.576;2024-02-15T12:38:45;23.10;1.00
490;DHT22;231;48.120;11.576;2024-02-15T12:41:19;22.30;1.00
490;DHT22;231;48.120;11.576;2024-02-15T12:43:48;21.60;1.00
490;DHT22;231;48.120;11.576;2024-02-15T12:46:19;21.20;1.00
490;DHT22;231;48.120;11.576;2024-02-15T12:49:10;21.10;1.00
490;DHT22;231;48.120;11.576;2024-02-15T12:51:39;21.30;1.00
490;DHT22;231;48.120;11.576;2024-02-15T12:54:19;22.00;1.00
490;DHT22;231;48.120;11.576;2024-02-15T12:56:47;22.60;1.00
490;DHT22;231;48.120;11.576;2024-02-15T12:59:19;23.00;1.00
490;DHT22;231;48.120;11.576;2024-02-15T13:01:57;22.90;1.00
490;DHT22;231;48.120;11.576;2024-02-15T13:04:38;22.80;1.00
490;DHT22;231;48.120;11.576;2024-02-15T13:07:06;22.60;1.00
490;DHT22;231;48.120;11.576;2024-02-15T13:09:34;22.40;1.00
490;DHT22;231;48.120;11.576;2024-02-15T13:12:08;22.10;1.00
490;DHT22;231;48.120;11.576;2024-02-15T13:14:39;21.80;1.00
490;DHT22;231;48.120;11.576;2024-02-15T13:17:18;21.30;1.00
490;DHT22;231;48.120;11.576;2024-02-15T13:19:57;20.70;1.00
490;DHT22;231;48.120;11.576;2024-02-15T13:22:43;20.30;1.00
490;DHT22;231;48.120;11.576;2024-02-15T13:25:16;20.00;1.00
490;DHT22;231;48.120;11.576;2024-02-15T13:28:05;19.80;1.00
490;DHT22;231;48.120;11.576;2024-02-15T13:30:41;19.70;1.00
490;DHT22;231;48.120;11.576;2024-02-15T13:33:10;19.50;1.00
490;DHT22;231;48.120;11.576;2024-02-15T13:35:46;19.50;1.00
490;DHT22;231;48.120;11.576;2024-02-15T13:38:15;19.60;1.00
490;DHT22;231;48.120;11.576;2024-02-15T13:40:54;19.60;1.00
490;DHT22;231;48.120;11.576;2024-02-15T13:43:27;19.60;1.00
490;DHT22;231;48.120;11.576;2024-02-15T13:46:24;19.60;1.00
490;DHT22;231;48.120;11.576;2024-02-15T13:48:54;19.50;1.00
490;DHT22;231;48.120;11.576;2024-02-15T13:51:34;19.40;1.00
490;DHT22;231;48.120;11.576;2024-02-15T13:54:06;19.40;1.00
490;DHT22;231;48.120;11.576;2024-02-15T13:56:34;19.40;1.00
490;DHT22;231;48.120;11.576;2024-02-15T13:59:06;19.40;1.00
490;DHT22;231;48.120;11.576;2024-02-15T14:01:35;19.20;1.00
490;DHT22;231;48.120;11.576;2024-02-15T14:04:22;19.00;1.00
490;DHT22;231;48.120;11.576;2024-02-15T14:06:57;18.80;1.00
490;DHT22;231;48.120;11.576;2024-02-15T14:09:28;18.70;1.00
490;DHT22;231;48.120;11.576;2024-02-15T14:11:59;18.70;1.00
490;DHT22;231;48.120;11.576;2024-02-15T14:14:32;18.60;1.00
490;DHT22;231;48.120;11.576;2024-02-15T14:17:01;18.30;1.00
490;DHT22;231;48.120;11.576;2024-02-15T14:19:33;18.10;1.00
490;DHT22;231;48.120;11.576;2024-02-15T14:22:05;18.00;1.00
490;DHT22;231;48.120;11.576;2024-02-15T14:24:35;18.00;1.00
490;DHT22;231;48.120;11.576;2024-02-15T14:27:07;18.00;1.00
490;DHT22;231;48.120;11.576;2024-02-15T14:29:39;18.00;1.00
490;DHT22;231;48.120;11.576;2024-02-15T14:32:32;18.10;1.00
490;DHT22;231;48.120;11.576;2024-02-15T14:35:17;18.20;1.00
490;DHT22;231;48.120;11.576;2024-02-15T14:37:48;18.30;1.00
490;DHT22;231;48.120;11.576;2024-02-15T14:40:19;18.30;1.00
490;DHT22;231;48.120;11.576;2024-02-15T14:42:54;18.20;1.00
490;DHT22;231;48.120;11.576;2024-02-15T14:45:26;18.10;1.00
490;DHT22;231;48.120;11.576;2024-02-15T14:48:05;18.10;1.00
490;DHT22;231;48.120;11.576;2024-02-15T14:50:43;17.90;1.00
490;DHT22;231;48.120;11.576;2024-02-15T14:53:17;17.80;1.00
490;DHT22;231;48.120;11.576;2024-02-15T14:55:49;17.70;1.00
490;DHT22;231;48.120;11.576;2024-02-15T14:58:19;17.60;1.00
490;DHT22;231;48.120;11.576;2024-02-15T15:00:55;17.50;1.00
490;DHT22;231;48.120;11.576;2024-02-15T15:03:24;17.40;1.00
490;DHT22;231;48.120;11.576;2024-02-15T15:06:04;17.30;1.00
490;DHT22;231;48.120;11.576;2024-02-15T15:08:51;17.10;1.00
490;DHT22;231;48.120;11.576;2024-02-15T15:11:48;17.00;1.00
490;DHT22;231;48.120;11.576;2024-02-15T15:14:38;16.80;1.00
490;DHT22;231;48.120;11.576;2024-02-15T15:17:09;16.60;1.00
490;DHT22;231;48.120;11.576;2024-02-15T15:19:41;16.30;1.00
490;DHT22;231;48.120;11.576;2024-02-15T15:22:08;16.30;1.00
490;DHT22;231;48.120;11.576;2024-02-15T15:24:36;16.10;1.00
490;DHT22;231;48.120;11.576;2024-02-15T15:27:03;16.00;1.00
490;DHT22;231;48.120;11.576;2024-02-15T15:29:31;15.80;1.00
490;DHT22;231;48.120;11.576;2024-02-15T15:31:58;15.70;1.00
490;DHT22;231;48.120;11.576;2024-02-15T15:34:25;15.60;1.00
490;DHT22;231;48.120;11.576;2024-02-15T15:36:52;15.40;1.00
490;DHT22;231;48.120;11.576;2024-02-15T15:39:20;15.30;1.00
490;DHT22;231;48.120;11.576;2024-02-15T15:41:51;15.20;1.00
490;DHT22;231;48.120;11.576;2024-02-15T15:44:20;15.10;1.00
490;DHT22;231;48.120;11.576;2024-02-15T15:46:49;14.90;1.00
490;DHT22;231;48.120;11.576;2024-02-15T15:49:16;14.90;1.00
490;DHT22;231;48.120;11.576;2024-02-15T15:51:44;14.90;1.00
490;DHT22;231;48.120;11.576;2024-02-15T15:54:10;14.90;1.00
490;DHT22;231;48.120;11.576;2024-02-15T15:56:37;14.90;1.00
490;DHT22;231;48.120;11.576;2024-02-15T15:59:06;14.80;1.00
490;DHT22;231;48.120;11.576;2024-02-15T16:01:33;14.80;1.00
490;DHT22;231;48.120;11.576;2024-02-15T16:04:01;14.80;1.00
490;DHT22;231;48.120;11.576;2024-02-15T16:06:28;14.70;1.00
490;DHT22;231;48.120;11.576;2024-02-15T16:08:54;14.60;1.00
490;DHT22;231;48.120;11.576;2024-02-15T16:11:21;14.40;1.40
490;DHT22;231;48.120;11.576;2024-02-15T16:13:48;14.20;2.20
490;DHT22;231;48.120;11.576;2024-02-15T16:16:17;14.10;2.90
490;DHT22;231;48.120;11.576;2024-02-15T16:18:43;14.10;3.40
490;DHT22;231;48.120;11.576;2024-02-15T16:21:10;13.90;3.90
490;DHT22;231;48.120;11.576;2024-02-15T16:23:37;13.80;4.20
490;DHT22;231;48.120;11.576;2024-02-15T16:26:04;13.60;5.10
490;DHT22;231;48.120;11.576;2024-02-15T16:28:32;13.50;5.60
490;DHT22;231;48.120;11.576;2024-02-15T16:30:59;13.30;6.10
490;DHT22;231;48.120;11.576;2024-02-15T16:33:29;13.20;6.80
490;DHT22;231;48.120;11.576;2024-02-15T16:35:56;13.10;7.40
490;DHT22;231;48.120;11.576;2024-02-15T16:38:23;12.90;8.20
490;DHT22;231;48.120;11.576;2024-02-15T16:40:50;12.70;8.60
490;DHT22;231;48.120;11.576;2024-02-15T16:43:17;12.60;9.50
490;DHT22;231;48.120;11.576;2024-02-15T16:45:43;12.40;9.90
490;DHT22;231;48.120;11.576;2024-02-15T16:48:12;12.30;10.90
490;DHT22;231;48.120;11.576;2024-02-15T16:50:40;12.20;11.50
490;DHT22;231;48.120;11.576;2024-02-15T16:53:07;11.90;12.20
490;DHT22;231;48.120;11.576;2024-02-15T16:55:35;11.80;13.80
490;DHT22;231;48.120;11.576;2024-02-15T16:58:02;11.70;14.80
490;DHT22;231;48.120;11.576;2024-02-15T17:00:33;11.60;15.40
490;DHT22;231;48.120;11.576;2024-02-15T17:03:00;11.40;15.80
490;DHT22;231;48.120;11.576;2024-02-15T17:05:27;11.30;16.60
490;DHT22;231;48.120;11.576;2024-02-15T17:07:55;11.20;17.30
490;DHT22;231;48.120;11.576;2024-02-15T17:10:22;11.10;18.00
490;DHT22;231;48.120;11.576;2024-02-15T17:12:53;10.90;19.10
490;DHT22;231;48.120;11.576;2024-02-15T17:15:20;10.80;21.30
490;DHT22;231;48.120;11.576;2024-02-15T17:17:51;10.80;22.50
490;DHT22;231;48.120;11.576;2024-02-15T17:20:18;10.80;23.40
490;DHT22;231;48.120;11.576;2024-02-15T17:22:48;10.80;23.90
490;DHT22;231;48.120;11.576;2024-02-15T17:25:16;10.80;24.20
490;DHT22;231;48.120;11.576;2024-02-15T17:27:43;10.60;24.00
490;DHT22;231;48.120;11.576;2024-02-15T17:30:11;10.60;24.40
490;DHT22;231;48.120;11.576;2024-02-15T17:32:39;10.50;24.50
490;DHT22;231;48.120;11.576;2024-02-15T17:35:09;10.40;25.80
490;DHT22;231;48.120;11.576;2024-02-15T17:37:39;10.30;26.50
490;DHT22;231;48.120;11.576;2024-02-15T17:40:07;10.20;29.60
490;DHT22;231;48.120;11.576;2024-02-15T17:42:38;10.30;29.80
490;DHT22;231;48.120;11.576;2024-02-15T17:45:08;10.20;29.90
490;DHT22;231;48.120;11.576;2024-02-15T17:47:36;10.20;31.70
490;DHT22;231;48.120;11.576;2024-02-15T17:50:06;10.20;33.40
490;DHT22;231;48.120;11.576;2024-02-15T17:52:34;10.20;34.40
490;DHT22;231;48.120;11.576;2024-02-15T17:55:01;10.20;34.40
490;DHT22;231;48.120;11.576;2024-02-15T17:57:30;10.10;36.60
490;DHT22;231;48.120;11.576;2024-02-15T17:59:59;10.10;39.20
490;DHT22;231;48.120;11.576;2024-02-15T18:02:26;10.10;39.40
490;DHT22;231;48.120;11.576;2024-02-15T18:04:53;10.10;40.10
490;DHT22;231;48.120;11.576;2024-02-15T18:07:20;10.00;40.20
490;DHT22;231;48.120;11.576;2024-02-15T18:09:46;9.90;42.70
490;DHT22;231;48.120;11.576;2024-02-15T18:12:16;9.90;46.10
490;DHT22;231;48.120;11.576;2024-02-15T18:14:46;9.90;48.20
490;DHT22;231;48.120;11.576;2024-02-15T18:17:14;9.90;48.80
490;DHT22;231;48.120;11.576;2024-02-15T18:19:42;9.90;49.50
490;DHT22;231;48.120;11.576;2024-02-15T18:22:09;9.90;50.30
490;DHT22;231;48.120;11.576;2024-02-15T18:24:36;9.90;49.90
490;DHT22;231;48.120;11.576;2024-02-15T18:27:04;9.90;49.20
490;DHT22;231;48.120;11.576;2024-02-15T18:29:31;10.00;49.00
490;DHT22;231;48.120;11.576;2024-02-15T18:31:58;9.90;48.80
490;DHT22;231;48.120;11.576;2024-02-15T18:34:26;9.90;48.60
490;DHT22;231;48.120;11.576;2024-02-15T18:36:53;9.80;48.30
490;DHT22;231;48.120;11.576;2024-02-15T18:39:20;9.80;48.60
490;DHT22;231;48.120;11.576;2024-02-15T18:42:02;9.80;48.10
490;DHT22;231;48.120;11.576;2024-02-15T18:44:32;9.70;48.10
490;DHT22;231;48.120;11.576;2024-02-15T18:47:00;9.70;50.10
490;DHT22;231;48.120;11.576;2024-02-15T18:49:28;9.60;50.40
490;DHT22;231;48.120;11.576;2024-02-15T18:51:55;9.60;50.70
490;DHT22;231;48.120;11.576;2024-02-15T18:54:22;9.60;51.30
490;DHT22;231;48.120;11.576;2024-02-15T18:56:49;9.60;51.30
490;DHT22;231;48.120;11.576;2024-02-15T18:59:21;9.60;51.10
490;DHT22;231;48.120;11.576;2024-02-15T19:01:47;9.50;51.00
490;DHT22;231;48.120;11.576;2024-02-15T19:04:15;9.40;51.30
490;DHT22;231;48.120;11.576;2024-02-15T19:06:43;9.40;52.00
490;DHT22;231;48.120;11.576;2024-02-15T19:09:10;9.30;52.20
490;DHT22;231;48.120;11.576;2024-02-15T19:11:36;9.30;53.50
490;DHT22;231;48.120;11.576;2024-02-15T19:14:04;9.20;54.80
490;DHT22;231;48.120;11.576;2024-02-15T19:16:31;9.20;56.10
490;DHT22;231;48.120;11.576;2024-02-15T19:18:58;9.20;56.50
490;DHT22;231;48.120;11.576;2024-02-15T19:21:25;9.10;55.70
490;DHT22;231;48.120;11.576;2024-02-15T19:23:53;9.00;55.90
490;DHT22;231;48.120;11.576;2024-02-15T19:26:21;9.00;58.70
490;DHT22;231;48.120;11.576;2024-02-15T19:28:48;8.90;59.20
490;DHT22;231;48.120;11.576;2024-02-15T19:31:15;8.80;58.50
490;DHT22;231;48.120;11.576;2024-02-15T19:33:41;8.70;58.70
490;DHT22;231;48.120;11.576;2024-02-15T19:36:08;8.60;61.50
490;DHT22;231;48.120;11.576;2024-02-15T19:38:35;8.60;64.80
490;DHT22;231;48.120;11.576;2024-02-15T19:41:05;8.60;66.50
490;DHT22;231;48.120;11.576;2024-02-15T19:43:32;8.50;68.00
490;DHT22;231;48.120;11.576;2024-02-15T19:46:00;8.50;69.40
490;DHT22;231;48.120;11.576;2024-02-15T19:48:41;8.40;68.60
490;DHT22;231;48.120;11.576;2024-02-15T19:51:11;8.20;68.10
490;DHT22;231;48.120;11.576;2024-02-15T19:53:39;8.10;69.40
490;DHT22;231;48.120;11.576;2024-02-15T19:56:08;8.00;72.80
490;DHT22;231;48.120;11.576;2024-02-15T19:58:37;7.90;75.30
490;DHT22;231;48.120;11.576;2024-02-15T20:01:04;7.90;78.00
490;DHT22;231;48.120;11.576;2024-02-15T20:03:29;7.90;81.00
490;DHT22;231;48.120;11.576;2024-02-15T20:05:57;7.90;83.60
490;DHT22;231;48.120;11.576;2024-02-15T20:08:25;7.90;86.70
490;DHT22;231;48.120;11.576;2024-02-15T20:10:52;7.90;86.30
490;DHT22;231;48.120;11.576;2024-02-15T20:13:24;7.80;86.10